Terminal Aerodrome Forecast
Issued by NWS Paducah, KY

Home | Current Version | Previous Version | Text Only | Print | Product List | Glossary On
Versions: 1 2 3 4 5 6 7 8 9 10 11 12 13
000
FTUS43 KPAH 301700 RRA
TAFEVV
TAF
KEVV 301740Z 3018/3118 20001KT P6SM SKC
     FM302330 01004KT P6SM BKN090 OVC120
     FM310300 VRB03KT P6SM VCSH SCT040 OVC080
     FM310900 36005KT P6SM BKN040 OVC080
     FM311200 36005KT P6SM OVC040
      TEMPO 3114/3116 BKN016 OVC040=

USA.gov is the U.S. government's official web portal to all federal, state and local government web resources and services.